sensor_id;sensor_type;location;lat;lon;timestamp;P1;durP1;ratioP1;P2;durP2;ratioP2
50681;SDS011;36779;52.168;20.878;2023-04-19T00:00:57;6.20;;;3.10;;
50681;SDS011;36779;52.168;20.878;2023-04-19T00:03:30;9.00;;;4.10;;
50681;SDS011;36779;52.168;20.878;2023-04-19T00:06:02;11.30;;;3.50;;
50681;SDS011;36779;52.168;20.878;2023-04-19T00:08:36;5.60;;;2.90;;
50681;SDS011;36779;52.168;20.878;2023-04-19T00:11:08;7.10;;;3.30;;
50681;SDS011;36779;52.168;20.878;2023-04-19T00:13:40;6.30;;;3.30;;
50681;SDS011;36779;52.168;20.878;2023-04-19T00:16:13;4.60;;;2.60;;
50681;SDS011;36779;52.168;20.878;2023-04-19T00:18:45;6.30;;;3.20;;
50681;SDS011;36779;52.168;20.878;2023-04-19T00:21:17;6.20;;;3.50;;
50681;SDS011;36779;52.168;20.878;2023-04-19T00:23:49;9.70;;;4.00;;
50681;SDS011;36779;52.168;20.878;2023-04-19T00:26:22;7.50;;;4.10;;
50681;SDS011;36779;52.168;20.878;2023-04-19T00:28:57;5.40;;;2.80;;
50681;SDS011;36779;52.168;20.878;2023-04-19T00:31:30;5.70;;;2.40;;
50681;SDS011;36779;52.168;20.878;2023-04-19T00:34:01;5.50;;;2.60;;
50681;SDS011;36779;52.168;20.878;2023-04-19T00:36:34;5.20;;;2.70;;
50681;SDS011;36779;52.168;20.878;2023-04-19T00:39:07;5.50;;;2.80;;
50681;SDS011;36779;52.168;20.878;2023-04-19T00:41:39;4.20;;;2.10;;
50681;SDS011;36779;52.168;20.878;2023-04-19T00:44:11;5.00;;;2.50;;
50681;SDS011;36779;52.168;20.878;2023-04-19T00:46:44;6.10;;;2.70;;
50681;SDS011;36779;52.168;20.878;2023-04-19T00:49:17;5.00;;;2.40;;
50681;SDS011;36779;52.168;20.878;2023-04-19T00:51:52;5.20;;;1.80;;
50681;SDS011;36779;52.168;20.878;2023-04-19T00:54:24;4.40;;;2.50;;
50681;SDS011;36779;52.168;20.878;2023-04-19T00:56:57;5.30;;;3.10;;
50681;SDS011;36779;52.168;20.878;2023-04-19T00:59:29;6.70;;;2.90;;
50681;SDS011;36779;52.168;20.878;2023-04-19T01:02:05;4.50;;;2.30;;
50681;SDS011;36779;52.168;20.878;2023-04-19T01:04:38;6.50;;;2.00;;
50681;SDS011;36779;52.168;20.878;2023-04-19T01:07:11;7.50;;;2.90;;
50681;SDS011;36779;52.168;20.878;2023-04-19T01:09:44;7.50;;;3.50;;
50681;SDS011;36779;52.168;20.878;2023-04-19T01:12:16;6.30;;;3.20;;
50681;SDS011;36779;52.168;20.878;2023-04-19T01:14:48;7.80;;;3.20;;
50681;SDS011;36779;52.168;20.878;2023-04-19T01:17:20;6.60;;;2.70;;
50681;SDS011;36779;52.168;20.878;2023-04-19T01:19:58;3.80;;;1.80;;
50681;SDS011;36779;52.168;20.878;2023-04-19T01:22:35;7.30;;;3.60;;
50681;SDS011;36779;52.168;20.878;2023-04-19T01:25:08;7.00;;;3.00;;
50681;SDS011;36779;52.168;20.878;2023-04-19T01:27:43;9.50;;;3.20;;
50681;SDS011;36779;52.168;20.878;2023-04-19T01:30:15;5.80;;;3.30;;
50681;SDS011;36779;52.168;20.878;2023-04-19T01:32:48;5.90;;;2.90;;
50681;SDS011;36779;52.168;20.878;2023-04-19T01:35:21;7.20;;;3.80;;
50681;SDS011;36779;52.168;20.878;2023-04-19T01:37:53;2.80;;;1.80;;
50681;SDS011;36779;52.168;20.878;2023-04-19T01:40:28;9.70;;;3.90;;
50681;SDS011;36779;52.168;20.878;2023-04-19T01:43:01;9.50;;;4.50;;
50681;SDS011;36779;52.168;20.878;2023-04-19T01:45:33;9.10;;;4.70;;
50681;SDS011;36779;52.168;20.878;2023-04-19T01:48:08;7.90;;;3.70;;
50681;SDS011;36779;52.168;20.878;2023-04-19T01:50:40;6.60;;;3.50;;
50681;SDS011;36779;52.168;20.878;2023-04-19T01:53:12;9.40;;;3.90;;
50681;SDS011;36779;52.168;20.878;2023-04-19T01:55:44;8.60;;;4.50;;
50681;SDS011;36779;52.168;20.878;2023-04-19T01:58:17;9.50;;;5.10;;
50681;SDS011;36779;52.168;20.878;2023-04-19T02:00:49;9.50;;;4.90;;
50681;SDS011;36779;52.168;20.878;2023-04-19T02:03:22;9.10;;;4.80;;
50681;SDS011;36779;52.168;20.878;2023-04-19T02:05:57;10.20;;;4.50;;
50681;SDS011;36779;52.168;20.878;2023-04-19T02:08:31;8.00;;;4.70;;
50681;SDS011;36779;52.168;20.878;2023-04-19T02:11:06;11.10;;;5.40;;
50681;SDS011;36779;52.168;20.878;2023-04-19T02:13:39;8.90;;;4.50;;
50681;SDS011;36779;52.168;20.878;2023-04-19T02:16:12;8.90;;;5.20;;
50681;SDS011;36779;52.168;20.878;2023-04-19T02:18:45;9.70;;;4.60;;
50681;SDS011;36779;52.168;20.878;2023-04-19T02:21:19;7.70;;;3.60;;
50681;SDS011;36779;52.168;20.878;2023-04-19T02:23:52;5.50;;;3.10;;
50681;SDS011;36779;52.168;20.878;2023-04-19T02:26:24;8.70;;;4.10;;
50681;SDS011;36779;52.168;20.878;2023-04-19T02:28:56;9.20;;;4.70;;
50681;SDS011;36779;52.168;20.878;2023-04-19T02:31:29;10.80;;;4.70;;
50681;SDS011;36779;52.168;20.878;2023-04-19T02:34:02;9.80;;;4.40;;
50681;SDS011;36779;52.168;20.878;2023-04-19T02:36:35;6.70;;;4.00;;
50681;SDS011;36779;52.168;20.878;2023-04-19T02:39:07;7.40;;;3.70;;
50681;SDS011;36779;52.168;20.878;2023-04-19T02:41:40;5.50;;;2.90;;
50681;SDS011;36779;52.168;20.878;2023-04-19T02:44:12;5.80;;;3.00;;
50681;SDS011;36779;52.168;20.878;2023-04-19T02:46:48;8.80;;;4.10;;
50681;SDS011;36779;52.168;20.878;2023-04-19T02:49:22;7.00;;;3.90;;
50681;SDS011;36779;52.168;20.878;2023-04-19T02:51:54;9.60;;;4.60;;
50681;SDS011;36779;52.168;20.878;2023-04-19T02:54:27;7.10;;;4.60;;
50681;SDS011;36779;52.168;20.878;2023-04-19T02:57:01;7.40;;;3.60;;
50681;SDS011;36779;52.168;20.878;2023-04-19T02:59:33;7.00;;;3.60;;
50681;SDS011;36779;52.168;20.878;2023-04-19T03:02:06;9.50;;;4.30;;
50681;SDS011;36779;52.168;20.878;2023-04-19T03:04:39;7.10;;;3.90;;
50681;SDS011;36779;52.168;20.878;2023-04-19T03:07:11;6.90;;;3.80;;
50681;SDS011;36779;52.168;20.878;2023-04-19T03:09:44;8.50;;;4.20;;
50681;SDS011;36779;52.168;20.878;2023-04-19T03:12:16;9.90;;;5.10;;
50681;SDS011;36779;52.168;20.878;2023-04-19T03:14:48;11.10;;;6.20;;
50681;SDS011;36779;52.168;20.878;2023-04-19T03:17:21;8.50;;;5.40;;
50681;SDS011;36779;52.168;20.878;2023-04-19T03:19:54;8.10;;;4.80;;
50681;SDS011;36779;52.168;20.878;2023-04-19T03:22:26;9.80;;;4.50;;
50681;SDS011;36779;52.168;20.878;2023-04-19T03:24:59;11.40;;;4.90;;
50681;SDS011;36779;52.168;20.878;2023-04-19T03:27:32;7.80;;;4.30;;
50681;SDS011;36779;52.168;20.878;2023-04-19T03:30:10;7.60;;;4.30;;
50681;SDS011;36779;52.168;20.878;2023-04-19T03:32:45;9.90;;;5.60;;
50681;SDS011;36779;52.168;20.878;2023-04-19T03:35:18;12.50;;;6.20;;
50681;SDS011;36779;52.168;20.878;2023-04-19T03:37:55;14.80;;;7.30;;
50681;SDS011;36779;52.168;20.878;2023-04-19T03:40:31;10.40;;;5.70;;
50681;SDS011;36779;52.168;20.878;2023-04-19T03:43:06;14.90;;;6.20;;
50681;SDS011;36779;52.168;20.878;2023-04-19T03:45:39;9.90;;;5.50;;
50681;SDS011;36779;52.168;20.878;2023-04-19T03:48:12;11.50;;;6.00;;
50681;SDS011;36779;52.168;20.878;2023-04-19T03:50:44;10.90;;;5.70;;
50681;SDS011;36779;52.168;20.878;2023-04-19T03:53:18;10.30;;;5.70;;
50681;SDS011;36779;52.168;20.878;2023-04-19T03:55:50;9.20;;;4.40;;
50681;SDS011;36779;52.168;20.878;2023-04-19T03:58:23;10.30;;;6.10;;
50681;SDS011;36779;52.168;20.878;2023-04-19T04:00:59;11.20;;;6.00;;
50681;SDS011;36779;52.168;20.878;2023-04-19T04:03:36;11.10;;;6.30;;
50681;SDS011;36779;52.168;20.878;2023-04-19T04:06:10;9.90;;;5.60;;
50681;SDS011;36779;52.168;20.878;2023-04-19T04:08:46;9.30;;;5.20;;
50681;SDS011;36779;52.168;20.878;2023-04-19T04:11:18;6.10;;;3.40;;
50681;SDS011;36779;52.168;20.878;2023-04-19T04:13:50;9.90;;;3.60;;
50681;SDS011;36779;52.168;20.878;2023-04-19T04:16:29;7.20;;;4.30;;
50681;SDS011;36779;52.168;20.878;2023-04-19T04:19:02;10.20;;;5.60;;
50681;SDS011;36779;52.168;20.878;2023-04-19T04:21:39;9.40;;;5.10;;
50681;SDS011;36779;52.168;20.878;2023-04-19T04:24:12;8.50;;;4.80;;
50681;SDS011;36779;52.168;20.878;2023-04-19T04:27:02;11.20;;;5.40;;
50681;SDS011;36779;52.168;20.878;2023-04-19T04:29:37;11.70;;;5.70;;
50681;SDS011;36779;52.168;20.878;2023-04-19T04:32:12;13.40;;;5.90;;
50681;SDS011;36779;52.168;20.878;2023-04-19T04:34:47;8.10;;;5.30;;
50681;SDS011;36779;52.168;20.878;2023-04-19T04:37:30;8.50;;;4.50;;
50681;SDS011;36779;52.168;20.878;2023-04-19T04:40:03;10.60;;;5.50;;
50681;SDS011;36779;52.168;20.878;2023-04-19T04:42:38;8.80;;;5.10;;
50681;SDS011;36779;52.168;20.878;2023-04-19T04:45:11;9.10;;;4.90;;
50681;SDS011;36779;52.168;20.878;2023-04-19T04:47:47;8.50;;;4.70;;
50681;SDS011;36779;52.168;20.878;2023-04-19T04:50:22;11.30;;;5.30;;
50681;SDS011;36779;52.168;20.878;2023-04-19T04:52:57;7.80;;;5.00;;
50681;SDS011;36779;52.168;20.878;2023-04-19T04:55:32;10.00;;;5.10;;
50681;SDS011;36779;52.168;20.878;2023-04-19T04:58:05;8.20;;;4.20;;
50681;SDS011;36779;52.168;20.878;2023-04-19T05:00:48;8.40;;;5.00;;
50681;SDS011;36779;52.168;20.878;2023-04-19T05:03:21;6.30;;;3.40;;
50681;SDS011;36779;52.168;20.878;2023-04-19T05:05:58;6.90;;;4.50;;
50681;SDS011;36779;52.168;20.878;2023-04-19T05:08:31;8.30;;;4.60;;
50681;SDS011;36779;52.168;20.878;2023-04-19T05:13:50;7.40;;;4.30;;
50681;SDS011;36779;52.168;20.878;2023-04-19T05:16:22;8.00;;;3.90;;
50681;SDS011;36779;52.168;20.878;2023-04-19T05:18:57;8.60;;;5.00;;
50681;SDS011;36779;52.168;20.878;2023-04-19T05:21:30;6.70;;;4.30;;
50681;SDS011;36779;52.168;20.878;2023-04-19T05:24:10;6.50;;;4.60;;
50681;SDS011;36779;52.168;20.878;2023-04-19T05:26:43;5.90;;;3.50;;
50681;SDS011;36779;52.168;20.878;2023-04-19T05:29:16;7.00;;;4.10;;
50681;SDS011;36779;52.168;20.878;2023-04-19T05:31:51;10.30;;;4.80;;
50681;SDS011;36779;52.168;20.878;2023-04-19T05:34:38;10.30;;;5.00;;
50681;SDS011;36779;52.168;20.878;2023-04-19T05:37:13;12.20;;;5.80;;
50681;SDS011;36779;52.168;20.878;2023-04-19T05:39:45;11.60;;;5.30;;
50681;SDS011;36779;52.168;20.878;2023-04-19T05:42:19;11.80;;;5.80;;
50681;SDS011;36779;52.168;20.878;2023-04-19T05:44:52;9.40;;;5.10;;
50681;SDS011;36779;52.168;20.878;2023-04-19T05:47:24;9.20;;;5.80;;
50681;SDS011;36779;52.168;20.878;2023-04-19T05:50:15;10.60;;;5.60;;
50681;SDS011;36779;52.168;20.878;2023-04-19T05:53:12;8.60;;;5.20;;
50681;SDS011;36779;52.168;20.878;2023-04-19T05:55:46;9.60;;;5.30;;
50681;SDS011;36779;52.168;20.878;2023-04-19T05:58:20;11.40;;;6.20;;
50681;SDS011;36779;52.168;20.878;2023-04-19T06:00:58;9.20;;;5.80;;
50681;SDS011;36779;52.168;20.878;2023-04-19T06:03:30;9.90;;;5.60;;
50681;SDS011;36779;52.168;20.878;2023-04-19T06:06:03;6.80;;;3.60;;
50681;SDS011;36779;52.168;20.878;2023-04-19T06:08:37;7.40;;;4.40;;
50681;SDS011;36779;52.168;20.878;2023-04-19T06:11:11;8.20;;;4.30;;
50681;SDS011;36779;52.168;20.878;2023-04-19T06:13:57;8.20;;;4.60;;
50681;SDS011;36779;52.168;20.878;2023-04-19T06:16:30;8.60;;;4.80;;
50681;SDS011;36779;52.168;20.878;2023-04-19T06:19:03;7.20;;;4.20;;
50681;SDS011;36779;52.168;20.878;2023-04-19T06:21:37;9.90;;;4.70;;
50681;SDS011;36779;52.168;20.878;2023-04-19T06:24:09;11.40;;;5.30;;
50681;SDS011;36779;52.168;20.878;2023-04-19T06:26:42;11.20;;;4.80;;
50681;SDS011;36779;52.168;20.878;2023-04-19T06:29:15;11.00;;;6.50;;
50681;SDS011;36779;52.168;20.878;2023-04-19T06:31:52;10.50;;;5.60;;
50681;SDS011;36779;52.168;20.878;2023-04-19T06:34:32;8.60;;;4.80;;
50681;SDS011;36779;52.168;20.878;2023-04-19T06:37:05;9.00;;;5.00;;
50681;SDS011;36779;52.168;20.878;2023-04-19T06:39:37;9.60;;;5.30;;
50681;SDS011;36779;52.168;20.878;2023-04-19T06:42:09;9.90;;;5.60;;
50681;SDS011;36779;52.168;20.878;2023-04-19T06:44:41;11.10;;;5.90;;
50681;SDS011;36779;52.168;20.878;2023-04-19T06:47:14;11.10;;;6.50;;
50681;SDS011;36779;52.168;20.878;2023-04-19T06:49:46;12.00;;;7.70;;
50681;SDS011;36779;52.168;20.878;2023-04-19T06:52:18;13.20;;;7.10;;
50681;SDS011;36779;52.168;20.878;2023-04-19T06:54:51;16.70;;;8.80;;
50681;SDS011;36779;52.168;20.878;2023-04-19T06:57:23;15.10;;;8.20;;
50681;SDS011;36779;52.168;20.878;2023-04-19T06:59:57;14.00;;;8.40;;
50681;SDS011;36779;52.168;20.878;2023-04-19T07:02:31;13.90;;;7.80;;
50681;SDS011;36779;52.168;20.878;2023-04-19T07:05:04;16.00;;;8.20;;
50681;SDS011;36779;52.168;20.878;2023-04-19T07:07:37;13.80;;;8.50;;
50681;SDS011;36779;52.168;20.878;2023-04-19T07:10:10;16.40;;;9.40;;
50681;SDS011;36779;52.168;20.878;2023-04-19T07:12:48;15.00;;;8.50;;
50681;SDS011;36779;52.168;20.878;2023-04-19T07:15:20;14.80;;;7.00;;
50681;SDS011;36779;52.168;20.878;2023-04-19T07:17:53;12.80;;;7.50;;
50681;SDS011;36779;52.168;20.878;2023-04-19T07:20:25;10.50;;;5.10;;
50681;SDS011;36779;52.168;20.878;2023-04-19T07:22:59;13.40;;;7.90;;
50681;SDS011;36779;52.168;20.878;2023-04-19T07:25:33;14.30;;;7.70;;
50681;SDS011;36779;52.168;20.878;2023-04-19T07:28:06;16.00;;;8.80;;
50681;SDS011;36779;52.168;20.878;2023-04-19T07:30:38;19.20;;;9.40;;
50681;SDS011;36779;52.168;20.878;2023-04-19T07:33:14;16.20;;;8.50;;
50681;SDS011;36779;52.168;20.878;2023-04-19T07:35:46;18.80;;;9.50;;
50681;SDS011;36779;52.168;20.878;2023-04-19T07:38:18;15.40;;;8.60;;
50681;SDS011;36779;52.168;20.878;2023-04-19T07:40:51;18.90;;;9.70;;
50681;SDS011;36779;52.168;20.878;2023-04-19T07:43:23;14.40;;;8.60;;
50681;SDS011;36779;52.168;20.878;2023-04-19T07:45:56;18.90;;;8.60;;
50681;SDS011;36779;52.168;20.878;2023-04-19T07:48:29;16.20;;;9.30;;
50681;SDS011;36779;52.168;20.878;2023-04-19T07:51:08;14.60;;;8.00;;
50681;SDS011;36779;52.168;20.878;2023-04-19T07:53:42;15.30;;;9.10;;
50681;SDS011;36779;52.168;20.878;2023-04-19T07:56:16;16.70;;;8.90;;
50681;SDS011;36779;52.168;20.878;2023-04-19T07:58:49;16.50;;;8.80;;
50681;SDS011;36779;52.168;20.878;2023-04-19T08:01:42;16.60;;;9.80;;
50681;SDS011;36779;52.168;20.878;2023-04-19T08:04:15;16.60;;;10.10;;
50681;SDS011;36779;52.168;20.878;2023-04-19T08:06:49;18.20;;;10.90;;
50681;SDS011;36779;52.168;20.878;2023-04-19T08:09:23;16.90;;;10.10;;
50681;SDS011;36779;52.168;20.878;2023-04-19T08:11:58;23.90;;;11.10;;
50681;SDS011;36779;52.168;20.878;2023-04-19T08:14:34;19.90;;;10.40;;
50681;SDS011;36779;52.168;20.878;2023-04-19T08:17:08;21.10;;;11.20;;
50681;SDS011;36779;52.168;20.878;2023-04-19T08:19:57;24.10;;;11.30;;
50681;SDS011;36779;52.168;20.878;2023-04-19T08:22:30;20.60;;;10.70;;
50681;SDS011;36779;52.168;20.878;2023-04-19T08:25:03;16.70;;;10.10;;
50681;SDS011;36779;52.168;20.878;2023-04-19T08:27:36;18.40;;;10.80;;
50681;SDS011;36779;52.168;20.878;2023-04-19T08:30:11;18.60;;;10.90;;
50681;SDS011;36779;52.168;20.878;2023-04-19T08:32:44;18.00;;;10.20;;
50681;SDS011;36779;52.168;20.878;2023-04-19T08:35:16;15.20;;;8.00;;
50681;SDS011;36779;52.168;20.878;2023-04-19T08:37:49;19.10;;;10.60;;
50681;SDS011;36779;52.168;20.878;2023-04-19T08:40:22;17.20;;;9.80;;
50681;SDS011;36779;52.168;20.878;2023-04-19T08:42:57;12.80;;;8.00;;
50681;SDS011;36779;52.168;20.878;2023-04-19T08:45:36;15.10;;;8.50;;
50681;SDS011;36779;52.168;20.878;2023-04-19T08:48:09;13.30;;;7.40;;
50681;SDS011;36779;52.168;20.878;2023-04-19T08:50:42;10.90;;;5.30;;
50681;SDS011;36779;52.168;20.878;2023-04-19T08:53:33;14.00;;;7.50;;
50681;SDS011;36779;52.168;20.878;2023-04-19T08:56:07;12.10;;;7.20;;
50681;SDS011;36779;52.168;20.878;2023-04-19T08:58:57;13.10;;;6.90;;
50681;SDS011;36779;52.168;20.878;2023-04-19T09:01:46;9.80;;;6.10;;
50681;SDS011;36779;52.168;20.878;2023-04-19T09:04:21;9.80;;;6.00;;
50681;SDS011;36779;52.168;20.878;2023-04-19T09:07:05;10.50;;;6.60;;
50681;SDS011;36779;52.168;20.878;2023-04-19T09:09:38;11.10;;;6.40;;
50681;SDS011;36779;52.168;20.878;2023-04-19T09:12:30;9.50;;;5.90;;
50681;SDS011;36779;52.168;20.878;2023-04-19T09:15:03;11.40;;;6.50;;
50681;SDS011;36779;52.168;20.878;2023-04-19T09:17:38;8.90;;;5.90;;
50681;SDS011;36779;52.168;20.878;2023-04-19T09:20:11;10.50;;;6.10;;
50681;SDS011;36779;52.168;20.878;2023-04-19T09:22:44;10.20;;;6.30;;
50681;SDS011;36779;52.168;20.878;2023-04-19T09:25:34;14.10;;;6.80;;
50681;SDS011;36779;52.168;20.878;2023-04-19T09:28:27;12.00;;;5.70;;
50681;SDS011;36779;52.168;20.878;2023-04-19T09:31:09;8.30;;;5.60;;
50681;SDS011;36779;52.168;20.878;2023-04-19T09:34:13;8.10;;;5.40;;
50681;SDS011;36779;52.168;20.878;2023-04-19T09:36:46;8.80;;;5.10;;
50681;SDS011;36779;52.168;20.878;2023-04-19T09:39:33;9.40;;;5.70;;
50681;SDS011;36779;52.168;20.878;2023-04-19T09:42:05;11.40;;;6.70;;
50681;SDS011;36779;52.168;20.878;2023-04-19T09:44:38;9.40;;;5.80;;
50681;SDS011;36779;52.168;20.878;2023-04-19T09:47:30;10.20;;;6.50;;
50681;SDS011;36779;52.168;20.878;2023-04-19T09:50:08;10.50;;;6.90;;
50681;SDS011;36779;52.168;20.878;2023-04-19T09:52:45;11.60;;;6.40;;
50681;SDS011;36779;52.168;20.878;2023-04-19T09:55:19;11.00;;;7.10;;
50681;SDS011;36779;52.168;20.878;2023-04-19T09:57:56;12.10;;;6.70;;
50681;SDS011;36779;52.168;20.878;2023-04-19T10:00:29;12.70;;;7.00;;
50681;SDS011;36779;52.168;20.878;2023-04-19T10:03:16;11.30;;;7.30;;
50681;SDS011;36779;52.168;20.878;2023-04-19T10:05:52;12.40;;;7.30;;
50681;SDS011;36779;52.168;20.878;2023-04-19T10:08:25;14.20;;;8.30;;
50681;SDS011;36779;52.168;20.878;2023-04-19T10:11:01;10.50;;;6.70;;
50681;SDS011;36779;52.168;20.878;2023-04-19T10:13:34;11.00;;;6.40;;
50681;SDS011;36779;52.168;20.878;2023-04-19T10:16:08;9.90;;;6.90;;
50681;SDS011;36779;52.168;20.878;2023-04-19T10:18:47;10.80;;;6.10;;
50681;SDS011;36779;52.168;20.878;2023-04-19T10:21:21;10.40;;;5.40;;
50681;SDS011;36779;52.168;20.878;2023-04-19T10:24:01;10.60;;;6.20;;
50681;SDS011;36779;52.168;20.878;2023-04-19T10:32:36;10.80;;;6.50;;
50681;SDS011;36779;52.168;20.878;2023-04-19T10:35:09;7.00;;;4.80;;
50681;SDS011;36779;52.168;20.878;2023-04-19T10:38:02;8.70;;;5.20;;
50681;SDS011;36779;52.168;20.878;2023-04-19T10:43:30;7.70;;;4.80;;
50681;SDS011;36779;52.168;20.878;2023-04-19T10:46:06;9.60;;;5.40;;
50681;SDS011;36779;52.168;20.878;2023-04-19T10:48:52;7.00;;;4.70;;
50681;SDS011;36779;52.168;20.878;2023-04-19T10:51:27;8.10;;;4.80;;
50681;SDS011;36779;52.168;20.878;2023-04-19T10:54:05;8.30;;;5.00;;
50681;SDS011;36779;52.168;20.878;2023-04-19T10:56:57;8.60;;;4.60;;
50681;SDS011;36779;52.168;20.878;2023-04-19T10:59:33;7.90;;;4.70;;
50681;SDS011;36779;52.168;20.878;2023-04-19T11:02:25;10.80;;;5.40;;
50681;SDS011;36779;52.168;20.878;2023-04-19T11:05:01;12.50;;;6.30;;
50681;SDS011;36779;52.168;20.878;2023-04-19T11:07:38;10.30;;;6.10;;
50681;SDS011;36779;52.168;20.878;2023-04-19T11:10:11;9.50;;;5.50;;
50681;SDS011;36779;52.168;20.878;2023-04-19T11:13:01;10.40;;;5.40;;
50681;SDS011;36779;52.168;20.878;2023-04-19T11:15:35;8.40;;;5.30;;
50681;SDS011;36779;52.168;20.878;2023-04-19T11:18:18;8.40;;;5.00;;
50681;SDS011;36779;52.168;20.878;2023-04-19T11:20:52;11.90;;;5.30;;
50681;SDS011;36779;52.168;20.878;2023-04-19T11:23:25;10.20;;;6.00;;
50681;SDS011;36779;52.168;20.878;2023-04-19T11:25:59;8.30;;;5.30;;
50681;SDS011;36779;52.168;20.878;2023-04-19T11:28:33;11.50;;;5.80;;
50681;SDS011;36779;52.168;20.878;2023-04-19T11:31:05;12.10;;;5.20;;
50681;SDS011;36779;52.168;20.878;2023-04-19T11:33:37;8.50;;;4.80;;
50681;SDS011;36779;52.168;20.878;2023-04-19T11:36:11;10.60;;;5.60;;
50681;SDS011;36779;52.168;20.878;2023-04-19T11:38:46;10.60;;;5.40;;
50681;SDS011;36779;52.168;20.878;2023-04-19T11:41:19;10.50;;;5.70;;
50681;SDS011;36779;52.168;20.878;2023-04-19T11:43:51;10.10;;;6.00;;
50681;SDS011;36779;52.168;20.878;2023-04-19T11:46:23;14.20;;;5.10;;
50681;SDS011;36779;52.168;20.878;2023-04-19T11:48:56;9.60;;;5.50;;
50681;SDS011;36779;52.168;20.878;2023-04-19T11:51:28;8.00;;;4.60;;
50681;SDS011;36779;52.168;20.878;2023-04-19T11:54:12;9.70;;;5.60;;
50681;SDS011;36779;52.168;20.878;2023-04-19T11:57:00;8.60;;;5.80;;
50681;SDS011;36779;52.168;20.878;2023-04-19T11:59:34;8.70;;;5.70;;
50681;SDS011;36779;52.168;20.878;2023-04-19T12:02:08;12.60;;;7.50;;
50681;SDS011;36779;52.168;20.878;2023-04-19T12:04:42;10.20;;;6.40;;
50681;SDS011;36779;52.168;20.878;2023-04-19T12:07:15;8.00;;;6.00;;
50681;SDS011;36779;52.168;20.878;2023-04-19T12:09:47;9.30;;;6.10;;
50681;SDS011;36779;52.168;20.878;2023-04-19T12:12:31;8.60;;;5.40;;
50681;SDS011;36779;52.168;20.878;2023-04-19T12:15:04;11.50;;;6.20;;
50681;SDS011;36779;52.168;20.878;2023-04-19T12:20:34;10.60;;;6.30;;
50681;SDS011;36779;52.168;20.878;2023-04-19T12:23:07;8.00;;;5.80;;
50681;SDS011;36779;52.168;20.878;2023-04-19T12:25:45;9.80;;;5.10;;
50681;SDS011;36779;52.168;20.878;2023-04-19T12:28:18;10.10;;;5.90;;
50681;SDS011;36779;52.168;20.878;2023-04-19T12:30:51;9.00;;;5.10;;
50681;SDS011;36779;52.168;20.878;2023-04-19T12:33:23;9.40;;;5.70;;
50681;SDS011;36779;52.168;20.878;2023-04-19T12:35:59;11.10;;;5.70;;
50681;SDS011;36779;52.168;20.878;2023-04-19T12:38:31;10.80;;;5.90;;
50681;SDS011;36779;52.168;20.878;2023-04-19T12:41:06;9.30;;;5.00;;
50681;SDS011;36779;52.168;20.878;2023-04-19T12:43:39;9.30;;;6.00;;
50681;SDS011;36779;52.168;20.878;2023-04-19T12:46:11;7.90;;;5.80;;
50681;SDS011;36779;52.168;20.878;2023-04-19T12:48:46;8.10;;;5.50;;
50681;SDS011;36779;52.168;20.878;2023-04-19T12:51:19;9.10;;;5.40;;
50681;SDS011;36779;52.168;20.878;2023-04-19T12:53:51;8.60;;;5.30;;
50681;SDS011;36779;52.168;20.878;2023-04-19T12:56:23;9.30;;;5.60;;
50681;SDS011;36779;52.168;20.878;2023-04-19T12:58:57;10.20;;;5.50;;
50681;SDS011;36779;52.168;20.878;2023-04-19T13:01:31;8.80;;;5.90;;
50681;SDS011;36779;52.168;20.878;2023-04-19T13:04:06;10.70;;;5.60;;
50681;SDS011;36779;52.168;20.878;2023-04-19T13:06:40;10.90;;;5.90;;
50681;SDS011;36779;52.168;20.878;2023-04-19T13:09:12;11.40;;;6.30;;
50681;SDS011;36779;52.168;20.878;2023-04-19T13:11:45;9.80;;;6.20;;
50681;SDS011;36779;52.168;20.878;2023-04-19T13:14:17;10.40;;;6.00;;
50681;SDS011;36779;52.168;20.878;2023-04-19T13:16:50;8.90;;;5.60;;
50681;SDS011;36779;52.168;20.878;2023-04-19T13:19:22;10.10;;;6.50;;
50681;SDS011;36779;52.168;20.878;2023-04-19T13:21:57;8.90;;;5.70;;
50681;SDS011;36779;52.168;20.878;2023-04-19T13:24:32;9.10;;;5.40;;
50681;SDS011;36779;52.168;20.878;2023-04-19T13:27:04;9.20;;;5.70;;
50681;SDS011;36779;52.168;20.878;2023-04-19T13:29:38;8.10;;;5.10;;
50681;SDS011;36779;52.168;20.878;2023-04-19T13:32:11;11.80;;;6.50;;
50681;SDS011;36779;52.168;20.878;2023-04-19T13:34:43;11.00;;;6.20;;
50681;SDS011;36779;52.168;20.878;2023-04-19T13:37:17;10.40;;;5.90;;
50681;SDS011;36779;52.168;20.878;2023-04-19T13:39:49;11.20;;;6.70;;
50681;SDS011;36779;52.168;20.878;2023-04-19T13:42:29;10.20;;;5.90;;
50681;SDS011;36779;52.168;20.878;2023-04-19T13:45:01;9.90;;;6.10;;
50681;SDS011;36779;52.168;20.878;2023-04-19T13:47:34;11.10;;;6.00;;
50681;SDS011;36779;52.168;20.878;2023-04-19T13:50:08;13.30;;;7.10;;
50681;SDS011;36779;52.168;20.878;2023-04-19T13:52:43;12.60;;;6.50;;
50681;SDS011;36779;52.168;20.878;2023-04-19T13:55:18;12.90;;;6.10;;
50681;SDS011;36779;52.168;20.878;2023-04-19T13:57:50;10.10;;;6.00;;
50681;SDS011;36779;52.168;20.878;2023-04-19T14:00:22;11.10;;;6.10;;
50681;SDS011;36779;52.168;20.878;2023-04-19T14:02:57;10.10;;;6.30;;
50681;SDS011;36779;52.168;20.878;2023-04-19T14:05:30;12.40;;;7.10;;
50681;SDS011;36779;52.168;20.878;2023-04-19T14:08:02;11.60;;;6.20;;
50681;SDS011;36779;52.168;20.878;2023-04-19T14:10:35;11.00;;;6.40;;
50681;SDS011;36779;52.168;20.878;2023-04-19T14:13:08;9.30;;;5.70;;
50681;SDS011;36779;52.168;20.878;2023-04-19T14:15:41;9.90;;;5.70;;
50681;SDS011;36779;52.168;20.878;2023-04-19T14:18:16;8.40;;;5.30;;
50681;SDS011;36779;52.168;20.878;2023-04-19T14:20:48;9.90;;;6.30;;
50681;SDS011;36779;52.168;20.878;2023-04-19T14:23:26;12.40;;;5.60;;
50681;SDS011;36779;52.168;20.878;2023-04-19T14:25:58;10.20;;;5.60;;
50681;SDS011;36779;52.168;20.878;2023-04-19T14:28:30;10.20;;;5.60;;
50681;SDS011;36779;52.168;20.878;2023-04-19T14:31:03;10.90;;;6.50;;
50681;SDS011;36779;52.168;20.878;2023-04-19T14:33:37;7.10;;;5.20;;
50681;SDS011;36779;52.168;20.878;2023-04-19T14:36:09;11.10;;;6.30;;
50681;SDS011;36779;52.168;20.878;2023-04-19T14:38:41;9.90;;;4.70;;
50681;SDS011;36779;52.168;20.878;2023-04-19T14:41:14;8.30;;;5.50;;
50681;SDS011;36779;52.168;20.878;2023-04-19T14:43:46;10.40;;;5.00;;
50681;SDS011;36779;52.168;20.878;2023-04-19T14:46:18;6.30;;;4.70;;
50681;SDS011;36779;52.168;20.878;2023-04-19T14:48:51;7.50;;;4.90;;
50681;SDS011;36779;52.168;20.878;2023-04-19T14:51:23;7.10;;;4.80;;
50681;SDS011;36779;52.168;20.878;2023-04-19T14:53:57;7.90;;;5.00;;
50681;SDS011;36779;52.168;20.878;2023-04-19T14:56:29;7.00;;;4.80;;
50681;SDS011;36779;52.168;20.878;2023-04-19T14:59:06;7.50;;;5.10;;
50681;SDS011;36779;52.168;20.878;2023-04-19T15:01:40;10.60;;;4.90;;
50681;SDS011;36779;52.168;20.878;2023-04-19T15:04:12;10.90;;;4.80;;
50681;SDS011;36779;52.168;20.878;2023-04-19T15:06:45;8.70;;;5.00;;
50681;SDS011;36779;52.168;20.878;2023-04-19T15:09:17;10.80;;;4.90;;
50681;SDS011;36779;52.168;20.878;2023-04-19T15:11:49;7.90;;;5.10;;
50681;SDS011;36779;52.168;20.878;2023-04-19T15:14:22;9.30;;;4.90;;
50681;SDS011;36779;52.168;20.878;2023-04-19T15:16:54;8.10;;;4.60;;
50681;SDS011;36779;52.168;20.878;2023-04-19T15:19:30;7.90;;;5.20;;
50681;SDS011;36779;52.168;20.878;2023-04-19T15:22:02;8.40;;;4.70;;
50681;SDS011;36779;52.168;20.878;2023-04-19T15:24:34;8.20;;;4.80;;
50681;SDS011;36779;52.168;20.878;2023-04-19T15:27:06;7.50;;;5.00;;